Data for 04/14/2015

Time Sea-Level Adjusted Pressure Absolute Pressure Temperature Relative Humidity Dew Point   
(mb) (inHg) (mb) (inHg) (C) (F) (%) (C) (F)
00:05 1012 29.88 841 24.83 13.6 56.6 20 -9 15.9
00:10 1012 29.88 841 24.83 13.5 56.3 21 -8.6 16.5
00:15 1012 29.88 841 24.83 13.2 55.8 21 -8.3 17
00:20 1012 29.88 841 24.83 13.1 55.6 21 -8.9 16
00:25 1012 29.88 841 24.83 13.7 56.7 19 -9.3 15.3
00:30 1012 29.88 841 24.83 13.8 56.9 19 -9.5 14.9
00:35 1012 29.88 841 24.83 13.9 57.1 19 -9.2 15.5
00:40 1012 29.88 841 24.83 13.9 56.9 19 -9.2 15.4
00:45 1012 29.88 841 24.83 14.1 57.3 19 -9.3 15.2
00:50 1012 29.88 841 24.83 14.1 57.3 19 -9.1 15.5
00:55 1012 29.88 841 24.83 13.9 56.9 19 -9.3 15.2
01:00 1011 29.85 841 24.83 13.7 56.7 19 -9.4 15.2
01:05 1011 29.85 841 24.83 13.5 56.4 20 -9.1 15.6
01:10 1011 29.85 841 24.83 13 55.3 21 -8.5 16.6
01:15 1011 29.85 840 24.81 12.5 54.4 22 -8.7 16.3
01:20 1011 29.85 840 24.81 12.4 54.4 22 -8.6 16.6
01:25 1011 29.85 840 24.81 12.5 54.4 22 -8.4 16.9
01:30 1011 29.85 840 24.81 12.3 54.1 22 -8.8 16.1
01:35 1011 29.85 840 24.81 12.5 54.5 22 -8.7 16.3
01:40 1011 29.85 840 24.81 12.6 54.6 22 -8.8 16.1
01:45 1011 29.85 840 24.81 12.6 54.7 22 -8.7 16.3
01:50 1011 29.85 840 24.81 12.6 54.8 21 -9.1 15.6
01:55 1010 29.83 840 24.81 12.9 55.2 21 -8.9 16
02:00 1010 29.83 840 24.81 12.8 55.1 21 -8.8 16.2
02:05 1010 29.83 840 24.81 12.8 55.1 21 -9 15.8
02:10 1010 29.83 839 24.78 12.8 55 21 -9.1 15.6
02:15 1010 29.83 839 24.78 13 55.4 20 -9.1 15.6
02:20 1010 29.83 839 24.78 12.9 55.1 20 -9.4 15
02:25 1010 29.83 839 24.78 13 55.3 20 -9.3 15.2
02:30 1010 29.83 839 24.78 13 55.3 20 -9.4 15.1
02:35 1010 29.83 839 24.78 12.9 55.2 20 -9.2 15.4
02:40 1010 29.83 839 24.78 12.8 55 21 -9 15.8
02:45 1009 29.8 839 24.78 12.5 54.5 21 -9 15.8
02:50 1009 29.8 839 24.78 12.2 54 22 -9 15.8
02:55 1009 29.8 838 24.75 12.2 54 22 -8.9 16
03:00 1009 29.8 838 24.75 12.2 54 21 -9.4 15.1
03:05 1009 29.8 838 24.75 12.2 53.9 22 -9.1 15.7
03:10 1009 29.8 838 24.75 12.1 53.7 22 -9.2 15.5
03:15 1009 29.8 838 24.75 11.9 53.3 22 -9.1 15.6
03:20 1009 29.8 838 24.75 11.8 53.2 22 -9.1 15.5
03:25 1009 29.8 838 24.75 11.7 53 22 -9.2 15.4
03:30 1009 29.8 838 24.75 11.7 53 22 -9.1 15.6
03:35 1009 29.8 838 24.75 11.5 52.7 22 -9.3 15.3
03:40 1009 29.8 838 24.75 11.4 52.5 23 -9.2 15.5
03:45 1009 29.8 838 24.75 11.2 52.2 23 -9.2 15.5
03:50 1009 29.8 838 24.75 11.2 52.1 23 -9.3 15.3
03:55 1009 29.8 838 24.75 11.2 52.1 23 -9.3 15.2
04:00 1009 29.8 838 24.75 11.1 52 23 -9.5 14.9
04:05 1009 29.8 838 24.75 11.3 52.3 22 -9.8 14.4
04:10 1008 29.77 838 24.75 11.5 52.6 21 -9.9 14.2
04:15 1008 29.77 838 24.75 11.5 52.6 21 -9.8 14.3
04:20 1008 29.77 837 24.72 11.5 52.7 21 -10 13.9
04:25 1008 29.77 837 24.72 11.5 52.7 21 -9.9 14.1
04:30 1008 29.77 837 24.72 11.6 52.8 21 -10.2 13.6
04:35 1008 29.77 837 24.72 11.6 52.8 21 -10.1 13.9
04:40 1008 29.77 837 24.72 11.4 52.5 21 -10 14.1
04:45 1008 29.77 837 24.72 11.3 52.4 21 -10.2 13.6
04:50 1008 29.77 837 24.72 11.3 52.4 21 -10.1 13.8
04:55 1008 29.77 837 24.72 11.2 52.1 22 -10.1 13.9
05:00 1008 29.77 837 24.72 11.1 51.9 22 -10.1 13.8
05:05 1008 29.77 837 24.72 11 51.7 22 -10 13.9
05:10 1008 29.77 837 24.72 10.9 51.6 22 -9.9 14.1
05:15 1008 29.77 837 24.72 10.7 51.2 22 -10.2 13.6
05:20 1008 29.77 837 24.72 10.9 51.7 22 -10.1 13.9
05:25 1008 29.77 837 24.72 10.8 51.5 22 -10.2 13.6
05:30 1008 29.77 837 24.72 10.8 51.4 22 -10.3 13.5
05:35 1008 29.77 837 24.72 10.7 51.3 22 -10.2 13.7
05:40 1008 29.77 837 24.72 10.7 51.2 23 -9.7 14.5
05:45 1008 29.77 837 24.72 10.2 50.3 25 -8.9 15.9
05:50 1008 29.77 837 24.72 9.7 49.5 24 -9.9 14.3
05:55 1008 29.77 837 24.72 10.3 50.6 23 -9.7 14.5
06:00 1008 29.77 837 24.72 9.9 49.8 27 -8.3 17
06:05 1008 29.77 837 24.72 9.5 49.1 25 -9.7 14.5
06:10 1008 29.77 837 24.72 9.7 49.5 25 -9.6 14.7
06:15 1008 29.77 837 24.72 10.3 50.6 23 -9.8 14.4
06:20 1008 29.77 837 24.72 10.3 50.6 24 -9.5 14.8
06:25 1008 29.77 837 24.72 10.5 50.9 23 -9.7 14.5
06:30 1008 29.77 837 24.72 10.7 51.3 23 -9.6 14.7
06:35 1008 29.77 837 24.72 11.1 52 22 -9.7 14.6
06:40 1008 29.77 837 24.72 11.6 52.9 21 -10 14
06:45 1008 29.77 837 24.72 11.9 53.4 21 -9.5 14.8
06:50 1008 29.77 837 24.72 11.7 53.1 21 -9.6 14.7
06:55 1008 29.77 837 24.72 11.7 53.1 22 -9.4 15.1
07:00 1008 29.77 837 24.72 11.9 53.5 22 -9 15.7
07:05 1008 29.77 837 24.72 12.2 53.9 22 -9.2 15.5
07:10 1008 29.77 837 24.72 12.6 54.6 22 -8.8 16.2
07:15 1008 29.77 837 24.72 12.7 54.8 22 -8.4 17
07:20 1008 29.77 837 24.72 13 55.3 21 -8.9 16
07:25 1008 29.77 837 24.72 13.4 56.2 19 -9.9 14.3
07:30 1008 29.77 837 24.72 14.3 57.8 20 -8.6 16.5
07:35 1008 29.77 837 24.72 15.3 59.6 19 -8.4 16.9
07:40 1008 29.77 837 24.72 15.6 60 18 -8.5 16.7
07:45 1008 29.77 837 24.72 15.3 59.5 19 -8.1 17.5
07:50 1008 29.77 837 24.72 15 59 18 -9.2 15.4
07:55 1008 29.77 837 24.72 15 59 19 -8.5 16.8
08:00 1008 29.77 837 24.72 15.1 59.2 17 -9.5 15
08:05 1008 29.77 837 24.72 15.1 59.1 19 -8.2 17.3
08:10 1008 29.77 837 24.72 14.9 58.9 19 -8.7 16.4
08:15 1008 29.77 837 24.72 15 58.9 19 -8.3 17.1
08:20 1008 29.77 837 24.72 15 59 18 -9.1 15.7
08:25 1008 29.77 837 24.72 15.2 59.4 15 -11.4 11.6
08:30 1008 29.77 837 24.72 15.5 59.9 15 -11.1 12
08:35 1007 29.74 837 24.72 15.8 60.5 15 -10.4 13.3
08:40 1007 29.74 837 24.72 16.2 61.2 15 -10.3 13.5
08:45 1007 29.74 837 24.72 16.5 61.7 15 -10.3 13.4
08:50 1007 29.74 837 24.72 16.3 61.4 15 -10.3 13.4
08:55 1007 29.74 837 24.72 16.4 61.5 15 -9.9 14.2
09:00 1007 29.74 837 24.72 16.4 61.5 16 -9.8 14.3
09:05 1007 29.74 837 24.72 16.2 61.2 15 -10.4 13.3
09:10 1007 29.74 837 24.72 16.2 61.2 15 -10.5 13.1
09:15 1007 29.74 837 24.72 16.2 61.1 15 -10.2 13.6
09:20 1007 29.74 836 24.69 16.2 61.2 16 -9.9 14.2
09:25 1007 29.74 836 24.69 16.2 61.2 15 -10.7 12.7
09:30 1007 29.74 836 24.69 16.4 61.4 15 -10.6 13
09:35 1007 29.74 836 24.69 16.4 61.5 18 -7.7 18.1
09:40 1007 29.74 837 24.72 15.7 60.3 23 -5.5 22.2
09:45 1007 29.74 837 24.72 15 58.9 24 -5.3 22.4
09:50 1007 29.74 836 24.69 14.9 58.8 25 -4.9 23.2
09:55 1007 29.74 836 24.69 15.4 59.7 22 -5.9 21.3
10:00 1007 29.74 836 24.69 15.8 60.4 22 -5.7 21.8
10:05 1007 29.74 836 24.69 15.3 59.5 24 -5.3 22.4
10:10 1007 29.74 836 24.69 15.1 59.2 22 -6.2 20.8
10:15 1007 29.74 836 24.69 15.3 59.6 22 -6.4 20.5
10:20 1007 29.74 836 24.69 15.7 60.3 20 -7.2 19.1
10:25 1007 29.74 836 24.69 15.5 59.9 20 -7.6 18.4
10:30 1007 29.74 836 24.69 15.5 59.9 20 -7.3 18.8
10:35 1007 29.74 836 24.69 15.5 59.9 20 -7.5 18.6
10:40 1007 29.74 836 24.69 15.5 59.8 20 -7.5 18.6
10:45 1007 29.74 836 24.69 15.5 59.8 19 -7.7 18.1
10:50 1006 29.71 836 24.69 15.5 59.8 20 -7.5 18.5
10:55 1006 29.71 836 24.69 15.4 59.8 19 -7.8 18
11:00 1007 29.74 836 24.69 15.3 59.6 20 -7.8 18
11:05 1007 29.74 836 24.69 15.4 59.7 19 -7.9 17.8
11:10 1007 29.74 836 24.69 15.6 60.1 18 -8.4 16.9
11:15 1007 29.74 836 24.69 15.6 60.1 18 -8.5 16.6
11:20 1006 29.71 836 24.69 15.8 60.5 18 -8.4 16.9
11:25 1006 29.71 836 24.69 16 60.8 19 -7.8 18
11:30 1006 29.71 835 24.66 16.3 61.3 18 -8.3 17
11:35 1006 29.71 835 24.66 16.3 61.3 18 -8.1 17.5
11:40 1006 29.71 835 24.66 16.3 61.4 17 -8.7 16.4
11:45 1006 29.71 835 24.66 16.2 61.1 18 -8.1 17.4
11:50 1006 29.71 835 24.66 15.8 60.4 18 -8.4 16.9
11:55 1006 29.71 835 24.66 15.7 60.3 18 -8.2 17.3
12:00 1006 29.71 835 24.66 15.7 60.2 18 -8.7 16.3
12:05 1006 29.71 835 24.66 15.5 59.9 19 -8.2 17.2
12:10 1006 29.71 835 24.66 15.6 60 19 -7.9 17.8
12:15 1006 29.71 835 24.66 16 60.8 18 -8.2 17.2
12:20 1006 29.71 835 24.66 15.7 60.3 19 -8 17.6
12:25 1006 29.71 835 24.66 15.6 60 18 -8.3 17.1
12:30 1006 29.71 835 24.66 15.8 60.4 19 -7.5 18.5
12:35 1006 29.71 835 24.66 15.9 60.5 19 -7.9 17.7
12:40 1006 29.71 835 24.66 15.9 60.5 19 -7.8 17.9
12:45 1006 29.71 835 24.66 15.6 60 24 -5.1 22.9
12:50 1006 29.71 835 24.66 15.2 59.4 28 -3.1 26.4
12:55 1006 29.71 835 24.66 14.8 58.6 28 -3.5 25.7
13:00 1006 29.71 835 24.66 14.7 58.5 28 -3.3 26
13:05 1006 29.71 835 24.66 14.8 58.7 29 -3.2 26.3
13:10 1005 29.68 835 24.66 14.6 58.3 27 -3.9 24.9
13:15 1006 29.71 835 24.66 14.9 58.9 28 -3.5 25.6
13:20 1005 29.68 835 24.66 14.9 58.8 27 -3.8 25.1
13:25 1006 29.71 835 24.66 14.9 58.8 27 -3.9 25
13:30 1005 29.68 835 24.66 15 59.1 27 -3.6 25.5
13:35 1005 29.68 835 24.66 14.9 58.8 28 -3.3 26
13:40 1006 29.71 835 24.66 14.7 58.5 29 -3.3 26.1
13:45 1005 29.68 835 24.66 14.6 58.2 29 -3.3 26.1
13:50 1006 29.71 835 24.66 14.5 58.1 29 -3.4 25.9
13:55 1005 29.68 835 24.66 14.3 57.8 30 -2.9 26.8
14:00 1005 29.68 835 24.66 14.3 57.8 32 -2.2 28
14:05 1006 29.71 835 24.66 14.3 57.7 33 -1.9 28.6
14:10 1005 29.68 835 24.66 14.2 57.5 33 -1.8 28.8
14:15 1005 29.68 835 24.66 13.8 56.8 34 -1.7 28.9
14:20 1006 29.71 835 24.66 13.7 56.6 35 -1.5 29.3
14:25 1006 29.71 835 24.66 13.5 56.4 37 -0.7 30.7
14:30 1006 29.71 835 24.66 13.4 56.1 37 -1 30.2
14:35 1006 29.71 835 24.66 13.3 55.9 37 -0.9 30.5
14:40 1006 29.71 835 24.66 13 55.5 39 -0.7 30.8
14:45 1006 29.71 835 24.66 12.8 55 39 -0.7 30.8
14:50 1006 29.71 835 24.66 12.8 55 40 -0.5 31.1
14:55 1006 29.71 835 24.66 12.8 55.1 39 -0.6 30.9
15:00 1006 29.71 835 24.66 12.8 55 40 -0.3 31.4
15:05 1006 29.71 836 24.69 12.8 55 40 -0.5 31.1
15:10 1007 29.74 836 24.69 12.7 54.8 40 -0.6 30.9
15:15 1008 29.77 837 24.72 10.7 51.3 45 -0.6 30.9
15:20 1008 29.77 837 24.72 9.3 48.7 49 -1 30.2
15:25 1008 29.77 837 24.72 8.1 46.5 55 -0.4 31.2
15:30 1008 29.77 838 24.75 7.1 44.7 56 -1.1 30
15:35 1009 29.8 838 24.75 6.4 43.4 59 -1.2 29.9
15:40 1009 29.8 838 24.75 5.8 42.4 60 -1.4 29.5
15:45 1009 29.8 838 24.75 5.5 41.8 63 -1 30.2
15:50 1009 29.8 838 24.75 5.2 41.4 64 -1 30.1
15:55 1010 29.83 839 24.78 5.3 41.5 61 -1.7 28.9
16:00 1010 29.83 839 24.78 4.9 40.9 64 -1.3 29.6
16:05 1010 29.83 839 24.78 3.6 38.5 79 0.4 32.7
16:10 1010 29.83 839 24.78 2.4 36.3 85 0.2 32.3
16:15 1010 29.83 839 24.78 1.7 35 89 -0 32
16:20 1010 29.83 840 24.81 1.1 34 91 -0.3 31.5
16:25 1011 29.85 840 24.81 0.8 33.5 92 -0.4 31.4
16:30 1011 29.85 840 24.81 0.6 33.1 93 -0.5 31.1
16:35 1012 29.88 841 24.83 0.4 32.8 93 -0.5 31
16:40 1012 29.88 841 24.83 0.4 32.6 93 -0.6 30.9
16:45 1012 29.88 841 24.83 0.3 32.5 93 -0.7 30.8
16:50 1012 29.88 841 24.83 0.3 32.5 94 -0.6 30.9
16:55 1012 29.88 841 24.83 0.3 32.5 94 -0.6 30.8
17:00 1012 29.88 841 24.83 0.2 32.3 94 -0.7 30.8
17:05 1012 29.88 841 24.83 0.2 32.3 94 -0.7 30.7
17:10 1012 29.88 842 24.86 0.1 32.2 94 -0.7 30.7
17:15 1012 29.88 842 24.86 0.1 32.1 94 -0.8 30.6
17:20 1012 29.88 842 24.86 -0 32 94 -0.9 30.5
17:25 1012 29.88 842 24.86 -0.1 31.9 94 -0.9 30.4
17:30 1013 29.91 842 24.86 -0.1 31.8 94 -1 30.3
17:35 1013 29.91 842 24.86 -0.2 31.6 94 -1 30.2
17:40 1013 29.91 842 24.86 -0.3 31.4 94 -1.1 30
17:45 1013 29.91 842 24.86 -0.4 31.2 95 -1.2 29.9
17:50 1013 29.91 842 24.86 -0.5 31.1 94 -1.3 29.7
17:55 1013 29.91 842 24.86 -0.6 30.9 94 -1.4 29.5
18:00 1013 29.91 842 24.86 -0.8 30.6 95 -1.5 29.3
18:05 1013 29.91 842 24.86 -0.8 30.5 95 -1.6 29.2
18:10 1013 29.91 842 24.86 -0.9 30.3 95 -1.7 29
18:15 1013 29.91 843 24.89 -1 30.2 95 -1.7 28.9
18:20 1013 29.91 843 24.89 -1 30.2 95 -1.8 28.8
18:25 1013 29.91 842 24.86 -1.1 30.1 94 -1.9 28.6
18:30 1014 29.94 843 24.89 -1.1 30.1 95 -1.8 28.7
18:35 1014 29.94 843 24.89 -1.1 30.1 95 -1.8 28.7
18:40 1014 29.94 843 24.89 -1.1 30 94 -1.9 28.6
18:45 1014 29.94 843 24.89 -1.2 29.9 94 -2 28.5
18:50 1014 29.94 844 24.92 -1.1 30 95 -1.9 28.6
18:55 1014 29.94 844 24.92 -1.1 30.1 94 -1.9 28.7
19:00 1015 29.97 844 24.92 -1.1 30.1 95 -1.8 28.7
19:05 1015 29.97 844 24.92 -1.1 30.1 95 -1.8 28.8
19:10 1015 29.97 844 24.92 -1.1 30 95 -1.8 28.7
19:15 1015 29.97 844 24.92 -1.2 29.9 95 -1.9 28.5
19:20 1015 29.97 844 24.92 -1.3 29.6 94 -2.1 28.2
19:25 1015 29.97 844 24.92 -1.5 29.2 95 -2.3 27.9
19:30 1015 29.97 844 24.92 -1.6 29.1 95 -2.4 27.7
19:35 1015 29.97 845 24.95 -1.6 29.1 95 -2.3 27.8
19:40 1015 29.97 845 24.95 -1.6 29.1 95 -2.3 27.8
19:45 1015 29.97 845 24.95 -1.6 29.1 95 -2.3 27.9
19:50 1016 30 845 24.95 -1.6 29.1 95 -2.3 27.9
19:55 1016 30 845 24.95 -1.7 29 95 -2.3 27.8
20:00 1016 30 845 24.95 -1.7 28.9 95 -2.4 27.7
20:05 1016 30 845 24.95 -1.7 29 95 -2.3 27.8
20:10 1016 30 845 24.95 -1.6 29.1 96 -2.2 28.1
20:15 1016 30 845 24.95 -1.6 29.1 96 -2.2 28
20:20 1016 30 845 24.95 -1.8 28.8 95 -2.4 27.7
20:25 1016 30 845 24.95 -1.8 28.8 95 -2.4 27.6
20:30 1016 30 845 24.95 -1.8 28.8 96 -2.4 27.7
20:35 1016 30 845 24.95 -1.7 28.9 96 -2.3 27.8
20:40 1016 30 845 24.95 -1.8 28.8 96 -2.4 27.7
20:45 1016 30 845 24.95 -1.8 28.8 96 -2.4 27.7
20:50 1016 30 845 24.95 -1.8 28.7 95 -2.5 27.6
20:55 1016 30 845 24.95 -1.9 28.6 95 -2.5 27.4
21:00 1016 30 845 24.95 -1.9 28.5 96 -2.5 27.5
21:05 1016 30 845 24.95 -1.9 28.6 96 -2.5 27.4
21:10 1016 30 845 24.95 -1.8 28.7 96 -2.5 27.6
21:15 1016 30 845 24.95 -1.8 28.7 96 -2.4 27.6
21:20 1016 30 845 24.95 -1.8 28.8 96 -2.4 27.7
21:25 1016 30 845 24.95 -1.7 28.9 96 -2.3 27.8
21:30 1016 30 845 24.95 -1.8 28.8 96 -2.4 27.7
21:35 1016 30 845 24.95 -1.7 28.9 96 -2.3 27.8
21:40 1015 29.97 845 24.95 -1.7 29 96 -2.3 27.9
21:45 1015 29.97 845 24.95 -1.6 29.1 96 -2.2 28
21:50 1015 29.97 844 24.92 -1.7 29 96 -2.3 27.9
21:55 1015 29.97 845 24.95 -1.7 28.9 96 -2.3 27.8
22:00 1015 29.97 844 24.92 -1.8 28.8 96 -2.4 27.8
22:05 1016 30 845 24.95 -1.8 28.7 95 -2.5 27.6
22:10 1016 30 845 24.95 -1.9 28.6 95 -2.5 27.4
22:15 1016 30 845 24.95 -1.9 28.6 95 -2.6 27.3
22:20 1016 30 845 24.95 -1.9 28.6 95 -2.5 27.4
22:25 1016 30 845 24.95 -1.9 28.6 96 -2.5 27.4
22:30 1016 30 845 24.95 -1.9 28.6 95 -2.6 27.4
22:35 1016 30 845 24.95 -1.9 28.6 95 -2.6 27.4
22:40 1016 30 845 24.95 -1.9 28.5 95 -2.6 27.3
22:45 1016 30 845 24.95 -1.9 28.6 95 -2.5 27.4
22:50 1016 30 845 24.95 -1.9 28.6 95 -2.6 27.4
22:55 1016 30 845 24.95 -2 28.5 95 -2.6 27.3
23:00 1016 30 845 24.95 -2 28.4 95 -2.6 27.3
23:05 1016 30 845 24.95 -2 28.4 95 -2.7 27.2
23:10 1016 30 845 24.95 -2 28.4 95 -2.7 27.2
23:15 1016 30 845 24.95 -1.9 28.5 95 -2.6 27.3
23:20 1016 30 845 24.95 -2 28.4 95 -2.6 27.3
23:25 1016 30 845 24.95 -1.9 28.5 95 -2.6 27.4
23:30 1016 30 845 24.95 -1.9 28.5 95 -2.6 27.3
23:35 1016 30 845 24.95 -2 28.4 95 -2.6 27.3
23:40 1016 30 845 24.95 -2 28.3 95 -2.7 27.1
23:45 1016 30 845 24.95 -2.1 28.3 95 -2.8 27
23:50 1016 30 845 24.95 -2.1 28.3 95 -2.8 27
23:55 1016 30 846 24.98 -2.1 28.2 95 -2.8 26.9
24:00 1016 30 845 24.95 -2.2 28.1 95 -2.9 26.8